Data for 11/11/2017

Time Sea-Level Adjusted Pressure Absolute Pressure Temperature Relative Humidity Dew Point   
(mb) (inHg) (mb) (inHg) (C) (F) (%) (C) (F)
00:05 1015 29.97 844 24.92 0.2 32.4 91 -1.1 30
00:10 1015 29.97 844 24.92 0.2 32.4 91 -1.1 30
00:15 1015 29.97 844 24.92 0.2 32.4 91 -1.1 30.1
00:20 1015 29.97 844 24.92 0.2 32.3 91 -1.1 30.1
00:25 1015 29.97 844 24.92 0.1 32.3 92 -1 30.1
00:30 1015 29.97 844 24.92 0.1 32.2 92 -1 30.2
00:35 1015 29.97 844 24.92 0.1 32.2 93 -1 30.3
00:40 1015 29.97 844 24.92 0.1 32.1 93 -1 30.2
00:45 1015 29.97 844 24.92 0.1 32.1 93 -0.9 30.3
00:50 1015 29.97 844 24.92 0.1 32.2 93 -0.9 30.4
00:55 1015 29.97 844 24.92 0.1 32.2 93 -0.8 30.5
01:00 1015 29.97 844 24.92 0.1 32.2 93 -0.8 30.5
01:05 1015 29.97 844 24.92 0.2 32.3 93 -0.8 30.6
01:10 1015 29.97 844 24.92 0.2 32.4 93 -0.8 30.6
01:15 1015 29.97 844 24.92 0.3 32.5 93 -0.7 30.8
01:20 1015 29.97 844 24.92 0.4 32.8 93 -0.5 31.1
01:25 1015 29.97 844 24.92 0.7 33.2 93 -0.3 31.4
01:30 1015 29.97 844 24.92 0.7 33.2 93 -0.4 31.3
01:35 1015 29.97 844 24.92 0.5 32.9 92 -0.6 30.9
01:40 1015 29.97 844 24.92 0.3 32.5 92 -0.8 30.5
01:45 1015 29.97 844 24.92 0.2 32.4 93 -0.8 30.5
01:50 1015 29.97 844 24.92 0.2 32.3 93 -0.8 30.5
01:55 1015 29.97 844 24.92 0.1 32.3 93 -0.9 30.4
02:00 1015 29.97 844 24.92 0.1 32.2 93 -0.9 30.4
02:05 1015 29.97 845 24.95 0.1 32.2 93 -0.9 30.4
02:10 1015 29.97 845 24.95 0.1 32.2 93 -0.9 30.4
02:15 1015 29.97 845 24.95 0.1 32.1 93 -0.9 30.3
02:20 1015 29.97 845 24.95 0 32.1 93 -0.9 30.3
02:25 1015 29.97 845 24.95 0 32 93 -1 30.3
02:30 1015 29.97 845 24.95 -0 32 93 -1 30.3
02:35 1015 29.97 845 24.95 -0 32 93 -0.9 30.3
02:40 1016 30 845 24.95 0.1 32.2 94 -0.8 30.5
02:45 1016 30 845 24.95 0.2 32.3 94 -0.8 30.6
02:50 1016 30 845 24.95 0.1 32.2 94 -0.8 30.6
02:55 1016 30 845 24.95 0.1 32.3 94 -0.8 30.6
03:00 1016 30 845 24.95 0.2 32.3 94 -0.7 30.7
03:05 1016 30 845 24.95 0.2 32.3 94 -0.7 30.7
03:10 1016 30 845 24.95 0.2 32.3 94 -0.8 30.6
03:15 1016 30 845 24.95 0.2 32.3 93 -0.8 30.6
03:20 1016 30 845 24.95 0.2 32.3 94 -0.7 30.7
03:25 1016 30 845 24.95 0.2 32.4 94 -0.7 30.7
03:30 1016 30 845 24.95 0.2 32.3 93 -0.8 30.6
03:35 1016 30 845 24.95 0.2 32.3 94 -0.7 30.7
03:40 1016 30 845 24.95 0.1 32.3 94 -0.8 30.6
03:45 1016 30 845 24.95 0.2 32.3 94 -0.7 30.7
03:50 1016 30 845 24.95 0.2 32.4 94 -0.7 30.7
03:55 1016 30 846 24.98 0.2 32.4 94 -0.7 30.7
04:00 1016 30 846 24.98 0.2 32.4 94 -0.7 30.8
04:05 1017 30.03 846 24.98 0.3 32.5 93 -0.6 30.8
04:10 1017 30.03 846 24.98 0.4 32.6 93 -0.6 30.9
04:15 1017 30.03 846 24.98 0.4 32.8 93 -0.6 31
04:20 1017 30.03 846 24.98 0.5 32.9 93 -0.5 31.1
04:25 1017 30.03 846 24.98 0.6 33.1 92 -0.5 31.1
04:30 1017 30.03 846 24.98 0.7 33.2 92 -0.5 31.1
04:35 1017 30.03 846 24.98 0.7 33.3 92 -0.5 31.1
04:40 1017 30.03 846 24.98 0.8 33.4 91 -0.5 31.1
04:45 1017 30.03 846 24.98 0.8 33.5 91 -0.5 31.1
04:50 1017 30.03 846 24.98 0.8 33.5 91 -0.5 31.1
04:55 1017 30.03 847 25.01 0.9 33.6 90 -0.5 31.1
05:00 1017 30.03 847 25.01 0.7 33.3 90 -0.7 30.7
05:05 1018 30.06 847 25.01 0.5 32.9 91 -0.8 30.6
05:10 1018 30.06 847 25.01 0.5 32.9 92 -0.7 30.7
05:15 1018 30.06 847 25.01 0.5 32.9 92 -0.7 30.7
05:20 1018 30.06 847 25.01 0.5 32.9 92 -0.7 30.8
05:25 1018 30.06 847 25.01 0.6 33.1 92 -0.5 31
05:30 1018 30.06 847 25.01 0.7 33.3 92 -0.5 31.1
05:35 1018 30.06 847 25.01 0.7 33.3 91 -0.6 31
05:40 1018 30.06 847 25.01 0.6 33 91 -0.7 30.7
05:45 1018 30.06 847 25.01 0.4 32.8 91 -0.8 30.5
05:50 1018 30.06 847 25.01 0.3 32.6 92 -0.8 30.5
05:55 1018 30.06 847 25.01 0.4 32.7 92 -0.7 30.7
06:00 1018 30.06 847 25.01 0.5 32.8 92 -0.7 30.8
06:05 1018 30.06 847 25.01 0.5 32.9 92 -0.6 30.9
06:10 1018 30.06 847 25.01 0.7 33.2 92 -0.5 31
06:15 1018 30.06 848 25.04 0.6 33.1 92 -0.6 30.9
06:20 1018 30.06 848 25.04 0.6 33.1 92 -0.6 31
06:25 1018 30.06 848 25.04 0.7 33.3 91 -0.5 31.1
06:30 1018 30.06 848 25.04 0.9 33.6 91 -0.5 31.2
06:35 1019 30.09 848 25.04 1 33.8 90 -0.5 31.2
06:40 1019 30.09 848 25.04 0.9 33.7 90 -0.5 31.2
06:45 1019 30.09 848 25.04 1.1 33.9 89 -0.5 31.1
06:50 1019 30.09 848 25.04 1.2 34.1 89 -0.5 31.1
06:55 1019 30.09 848 25.04 1.2 34.2 89 -0.5 31.2
07:00 1019 30.09 848 25.04 1.2 34.1 89 -0.5 31.1
07:05 1019 30.09 848 25.04 1 33.8 89 -0.6 30.9
07:10 1019 30.09 848 25.04 0.8 33.5 90 -0.7 30.8
07:15 1019 30.09 848 25.04 0.9 33.7 90 -0.5 31.1
07:20 1019 30.09 848 25.04 1.1 34.1 90 -0.3 31.4
07:25 1019 30.09 848 25.04 1.3 34.3 89 -0.3 31.5
07:30 1019 30.09 849 25.07 1.3 34.3 89 -0.4 31.3
07:35 1019 30.09 849 25.07 1.1 33.9 89 -0.5 31.1
07:40 1019 30.09 849 25.07 1.2 34.2 89 -0.4 31.3
07:45 1020 30.12 849 25.07 1.3 34.4 88 -0.4 31.2
07:50 1020 30.12 849 25.07 1.2 34.1 89 -0.4 31.2
07:55 1020 30.12 849 25.07 1.3 34.4 88 -0.4 31.2
08:00 1020 30.12 849 25.07 1.2 34.2 89 -0.5 31.2
08:05 1020 30.12 849 25.07 1.2 34.2 89 -0.5 31.2
08:10 1020 30.12 849 25.07 1.3 34.3 88 -0.4 31.2
08:15 1020 30.12 849 25.07 1.5 34.6 88 -0.3 31.5
08:20 1020 30.12 849 25.07 1.7 35 87 -0.2 31.6
08:25 1020 30.12 849 25.07 1.9 35.5 87 -0.1 31.8
08:30 1020 30.12 849 25.07 2.1 35.8 86 -0 31.9
08:35 1020 30.12 850 25.1 2.3 36.2 85 -0 32
08:40 1020 30.12 850 25.1 2.5 36.5 83 -0.2 31.7
08:45 1020 30.12 850 25.1 2.4 36.4 83 -0.1 31.8
08:50 1020 30.12 850 25.1 2.3 36.2 83 -0.2 31.6
08:55 1021 30.15 850 25.1 2.3 36.1 84 -0.1 31.9
09:00 1021 30.15 850 25.1 2.4 36.4 84 0 32.1
09:05 1021 30.15 850 25.1 2.6 36.7 83 0.1 32.1
09:10 1021 30.15 850 25.1 2.7 36.8 83 0.1 32.1
09:15 1021 30.15 850 25.1 2.6 36.7 83 0.1 32.2
09:20 1021 30.15 850 25.1 2.5 36.6 84 0 32.1
09:25 1021 30.15 850 25.1 2.3 36.2 85 0 32
09:30 1021 30.15 850 25.1 1.9 35.5 86 -0.3 31.5
09:35 1021 30.15 850 25.1 1.5 34.7 87 -0.4 31.3
09:40 1021 30.15 850 25.1 1.5 34.6 88 -0.4 31.3
09:45 1021 30.15 851 25.13 1.5 34.7 88 -0.3 31.4
09:50 1021 30.15 851 25.13 1.7 35.1 87 -0.1 31.8
09:55 1021 30.15 851 25.13 2.2 35.9 85 -0.1 31.8
10:00 1021 30.15 851 25.13 2.4 36.4 84 -0 31.9
10:05 1021 30.15 851 25.13 2.7 36.8 82 -0.2 31.7
10:10 1021 30.15 851 25.13 2.5 36.6 82 -0.1 31.7
10:15 1021 30.15 851 25.13 1.9 35.5 85 -0.3 31.4
10:20 1021 30.15 851 25.13 1.4 34.5 88 -0.3 31.4
10:25 1021 30.15 851 25.13 1.4 34.6 88 -0.4 31.3
10:30 1021 30.15 851 25.13 1.6 34.9 87 -0.4 31.4
10:35 1021 30.15 851 25.13 1.8 35.3 86 -0.2 31.6
10:40 1021 30.15 851 25.13 1.8 35.3 86 -0.2 31.6
10:45 1021 30.15 851 25.13 2.3 36.1 83 -0.3 31.4
10:50 1021 30.15 851 25.13 2.7 36.9 80 -0.5 31.1
10:55 1021 30.15 851 25.13 3.1 37.6 78 -0.3 31.5
11:00 1021 30.15 851 25.13 3 37.5 79 -0.3 31.5
11:05 1021 30.15 851 25.13 3.6 38.4 73 -0.8 30.5
11:10 1021 30.15 851 25.13 3.8 38.9 72 -0.7 30.7
11:15 1021 30.15 851 25.13 4 39.2 71 -0.8 30.5
11:20 1021 30.15 851 25.13 4.5 40.2 67 -1.1 30
11:25 1021 30.15 851 25.13 4.6 40.3 68 -0.9 30.5
11:30 1021 30.15 851 25.13 5.1 41.1 64 -1.1 29.9
11:35 1021 30.15 851 25.13 5.3 41.5 63 -1.1 29.9
11:40 1021 30.15 851 25.13 5.6 42 61 -1.4 29.5
11:45 1021 30.15 851 25.13 5.4 41.8 63 -1.1 30
11:50 1021 30.15 851 25.13 5.9 42.6 61 -1 30.2
11:55 1021 30.15 851 25.13 5.5 41.9 61 -1.3 29.6
12:00 1021 30.15 851 25.13 5.5 41.9 63 -1 30.1
12:05 1022 30.18 851 25.13 4.8 40.6 67 -0.8 30.6
12:10 1022 30.18 851 25.13 4.4 40 68 -0.9 30.4
12:15 1022 30.18 851 25.13 4.7 40.4 66 -1.1 30.1
12:20 1022 30.18 851 25.13 4.7 40.5 66 -1 30.2
12:25 1022 30.18 851 25.13 4.7 40.5 67 -1 30.3
12:30 1022 30.18 851 25.13 4.7 40.4 67 -1 30.2
12:35 1022 30.18 851 25.13 4.9 40.8 66 -1 30.2
12:40 1022 30.18 851 25.13 5.1 41.2 66 -0.8 30.6
12:45 1022 30.18 851 25.13 5.5 41.8 62 -1.1 30
12:50 1022 30.18 851 25.13 4.6 40.2 68 -0.8 30.6
12:55 1022 30.18 851 25.13 4.6 40.3 66 -1.2 29.8
13:00 1022 30.18 851 25.13 4.7 40.4 66 -1.2 29.8
13:05 1022 30.18 851 25.13 4.4 39.9 67 -1.2 29.9
13:10 1022 30.18 851 25.13 4.1 39.4 70 -0.9 30.4
13:15 1022 30.18 851 25.13 3.9 39 71 -0.9 30.3
13:20 1022 30.18 851 25.13 4.1 39.4 68 -1.2 29.9
13:25 1022 30.18 851 25.13 3.5 38.4 71 -1.2 29.9
13:30 1022 30.18 851 25.13 3.7 38.6 71 -1.2 29.9
13:35 1022 30.18 851 25.13 4.2 39.5 68 -1.3 29.7
13:40 1022 30.18 851 25.13 5.7 42.2 59 -1.7 29
13:45 1022 30.18 851 25.13 6.3 43.4 60 -0.8 30.6
13:50 1022 30.18 851 25.13 7 44.5 56 -1.3 29.6
13:55 1022 30.18 851 25.13 7.2 45 54 -1.3 29.6
14:00 1022 30.18 851 25.13 6.8 44.2 57 -1 30.2
14:05 1022 30.18 851 25.13 6 42.8 61 -1 30.2
14:10 1022 30.18 851 25.13 5.9 42.7 60 -1.3 29.6
14:15 1022 30.18 851 25.13 6 42.7 59 -1.5 29.2
14:20 1022 30.18 851 25.13 5.6 42.1 57 -2.2 28
14:25 1022 30.18 851 25.13 5.4 41.8 59 -2 28.3
14:30 1022 30.18 851 25.13 5.8 42.4 56 -2.2 28
14:35 1022 30.18 851 25.13 6.1 42.9 58 -1.5 29.3
14:40 1022 30.18 851 25.13 5.9 42.6 59 -1.6 29.2
14:45 1022 30.18 851 25.13 6.1 43 57 -1.6 29
14:50 1022 30.18 851 25.13 6.4 43.6 55 -1.8 28.7
14:55 1022 30.18 851 25.13 6.6 43.9 57 -1.3 29.6
15:00 1022 30.18 852 25.16 5.9 42.7 59 -1.4 29.5
15:05 1022 30.18 852 25.16 5.4 41.7 59 -1.8 28.7
15:10 1022 30.18 852 25.16 5.3 41.5 60 -1.8 28.7
15:15 1023 30.21 852 25.16 5.5 41.8 59 -1.9 28.5
15:20 1023 30.21 852 25.16 5.2 41.4 57 -2.7 27.2
15:25 1023 30.21 852 25.16 5.2 41.4 58 -2.3 27.8
15:30 1023 30.21 852 25.16 5.1 41.2 56 -2.9 26.8
15:35 1023 30.21 852 25.16 4.9 40.8 55 -3.4 25.8
15:40 1023 30.21 852 25.16 4.8 40.6 63 -1.6 29.1
15:45 1023 30.21 852 25.16 3.7 38.7 69 -1.4 29.5
15:50 1023 30.21 852 25.16 3.2 37.8 70 -1.8 28.8
15:55 1023 30.21 852 25.16 3 37.4 72 -1.6 29.1
16:00 1023 30.21 852 25.16 2.7 36.8 73 -1.6 29.1
16:05 1023 30.21 852 25.16 2.4 36.4 74 -1.6 29
16:10 1023 30.21 852 25.16 2.1 35.7 77 -1.6 29.1
16:15 1023 30.21 852 25.16 1.7 35 78 -1.7 28.9
16:20 1023 30.21 852 25.16 1.5 34.7 79 -1.8 28.8
16:25 1023 30.21 852 25.16 1.4 34.4 78 -2 28.4
16:30 1023 30.21 852 25.16 1.3 34.3 79 -2 28.3
16:35 1023 30.21 852 25.16 1.2 34.2 79 -2.1 28.3
16:40 1023 30.21 852 25.16 1.1 34 79 -2.2 28.1
16:45 1023 30.21 852 25.16 1.1 33.9 78 -2.3 27.8
16:50 1023 30.21 852 25.16 1 33.7 79 -2.3 27.8
16:55 1023 30.21 852 25.16 0.7 33.3 80 -2.4 27.7
17:00 1023 30.21 852 25.16 0.5 32.9 80 -2.5 27.4
17:05 1023 30.21 852 25.16 0.3 32.5 81 -2.6 27.3
17:10 1023 30.21 852 25.16 -0 31.9 82 -2.7 27.1
17:15 1023 30.21 852 25.16 -0 31.9 82 -2.8 26.9
17:20 1023 30.21 852 25.16 -0.3 31.5 82 -2.9 26.8
17:25 1023 30.21 852 25.16 -0.4 31.4 83 -2.9 26.7
17:30 1023 30.21 852 25.16 -0.3 31.4 82 -3 26.7
17:35 1023 30.21 852 25.16 -0.4 31.3 82 -3 26.5
17:40 1023 30.21 852 25.16 -0.6 30.9 81 -3.4 25.9
17:45 1023 30.21 852 25.16 -0.4 31.2 79 -3.7 25.3
17:50 1023 30.21 852 25.16 -0.3 31.4 80 -3.4 25.8
17:55 1023 30.21 852 25.16 -0.3 31.4 78 -3.8 25.2
18:00 1023 30.21 852 25.16 -0.4 31.3 75 -4.3 24.2
18:05 1023 30.21 852 25.16 -0.6 31 75 -4.5 23.8
18:10 1023 30.21 852 25.16 -0.6 30.9 78 -4.1 24.7
18:15 1023 30.21 852 25.16 -0.7 30.8 78 -4 24.7
18:20 1023 30.21 852 25.16 -0.7 30.8 78 -4.1 24.5
18:25 1023 30.21 852 25.16 -0.9 30.5 77 -4.5 23.9
18:30 1023 30.21 852 25.16 -0.9 30.4 78 -4.2 24.5
18:35 1023 30.21 852 25.16 -1 30.2 80 -4 24.7
18:40 1023 30.21 852 25.16 -1.1 30 80 -4.1 24.5
18:45 1023 30.21 852 25.16 -1.2 29.9 81 -4.1 24.6
18:50 1023 30.21 852 25.16 -1.1 30 80 -4.1 24.6
18:55 1023 30.21 852 25.16 -0.9 30.4 80 -4 24.8
19:00 1023 30.21 852 25.16 -0.9 30.4 79 -4 24.7
19:05 1023 30.21 852 25.16 -0.8 30.5 79 -4 24.7
19:10 1023 30.21 852 25.16 -0.6 30.8 78 -4.1 24.7
19:15 1023 30.21 852 25.16 -0.7 30.8 79 -3.9 24.9
19:20 1023 30.21 852 25.16 -0.7 30.7 79 -4 24.8
19:25 1023 30.21 852 25.16 -0.8 30.6 78 -4.1 24.6
19:30 1023 30.21 852 25.16 -1 30.2 80 -4 24.7
19:35 1023 30.21 852 25.16 -1.1 30 79 -4.2 24.4
19:40 1023 30.21 852 25.16 -0.9 30.4 79 -4.2 24.5
19:45 1023 30.21 852 25.16 -0.9 30.4 79 -4.1 24.6
19:50 1023 30.21 852 25.16 -1.1 30 79 -4.3 24.3
19:55 1023 30.21 852 25.16 -0.8 30.5 77 -4.3 24.2
20:00 1023 30.21 852 25.16 -0.9 30.4 79 -4.1 24.6
20:05 1023 30.21 852 25.16 -1.2 29.8 79 -4.4 24.1
20:10 1023 30.21 852 25.16 -1.4 29.6 79 -4.6 23.7
20:15 1023 30.21 852 25.16 -1.5 29.3 78 -4.8 23.4
20:20 1023 30.21 852 25.16 -1.3 29.6 77 -4.8 23.3
20:25 1023 30.21 852 25.16 -1.4 29.5 77 -4.9 23.2
20:30 1023 30.21 852 25.16 -1.6 29.2 78 -4.9 23.1
20:35 1023 30.21 852 25.16 -1.7 28.9 77 -5.2 22.7
20:40 1023 30.21 852 25.16 -1.7 29 77 -5.3 22.5
20:45 1023 30.21 852 25.16 -1.6 29.2 77 -5 23
20:50 1023 30.21 852 25.16 -1.6 29.1 77 -5.1 22.8
20:55 1023 30.21 852 25.16 -1.5 29.3 77 -5 23.1
21:00 1023 30.21 852 25.16 -1.6 29.1 78 -5 23
21:05 1023 30.21 852 25.16 -1.7 29 77 -5.2 22.6
21:10 1023 30.21 852 25.16 -1.8 28.8 77 -5.2 22.6
21:15 1023 30.21 852 25.16 -1.9 28.6 78 -5.2 22.6
21:20 1023 30.21 852 25.16 -2 28.4 78 -5.3 22.5
21:25 1023 30.21 852 25.16 -1.9 28.5 78 -5.3 22.5
21:30 1023 30.21 852 25.16 -1.8 28.7 78 -5.3 22.5
21:35 1023 30.21 852 25.16 -1.6 29 76 -5.4 22.3
21:40 1023 30.21 852 25.16 -1.7 29 76 -5.4 22.3
21:45 1023 30.21 852 25.16 -2 28.4 77 -5.6 22
21:50 1023 30.21 852 25.16 -2.3 27.8 77 -5.7 21.7
21:55 1023 30.21 852 25.16 -2.5 27.6 78 -5.8 21.5
22:00 1023 30.21 852 25.16 -2.5 27.5 78 -5.9 21.4
22:05 1023 30.21 852 25.16 -2.3 27.9 76 -5.9 21.3
22:10 1023 30.21 852 25.16 -2.2 28 76 -5.9 21.5
22:15 1023 30.21 852 25.16 -2.1 28.2 76 -5.8 21.6
22:20 1023 30.21 852 25.16 -2 28.3 76 -5.8 21.6
22:25 1023 30.21 852 25.16 -1.9 28.6 75 -5.8 21.6
22:30 1023 30.21 852 25.16 -1.9 28.7 75 -5.7 21.8
22:35 1023 30.21 852 25.16 -1.9 28.7 75 -5.8 21.6
22:40 1023 30.21 852 25.16 -1.8 28.7 74 -5.8 21.6
22:45 1023 30.21 852 25.16 -2 28.3 75 -5.8 21.5
22:50 1023 30.21 852 25.16 -2.2 28 75 -6.1 21.1
22:55 1023 30.21 852 25.16 -2.4 27.7 75 -6.2 20.9
23:00 1023 30.21 852 25.16 -2.6 27.3 76 -6.3 20.6
23:05 1023 30.21 852 25.16 -2.4 27.6 74 -6.5 20.3
23:10 1023 30.21 852 25.16 -1.9 28.5 72 -6.3 20.6
23:15 1023 30.21 852 25.16 -1.7 29 72 -6.1 21.1
23:20 1023 30.21 852 25.16 -1.6 29.1 71 -6.3 20.7
23:25 1023 30.21 852 25.16 -1.5 29.4 70 -6.2 20.8
23:30 1023 30.21 852 25.16 -1.4 29.5 70 -6.1 20.9
23:35 1023 30.21 852 25.16 -1.4 29.5 70 -6.1 20.9
23:40 1023 30.21 852 25.16 -1.6 29.2 71 -6.2 20.9
23:45 1023 30.21 852 25.16 -2 28.4 72 -6.3 20.6
23:50 1023 30.21 852 25.16 -2.1 28.3 72 -6.5 20.3
23:55 1023 30.21 852 25.16 -1.8 28.7 70 -6.5 20.2
24:00 1023 30.21 852 25.16 -2 28.4 71 -6.5 20.3